Porteirinha, Brazil
Current Conditions -  °F | °C
As of 8:00 AM on Friday 19 Dec 2014 (Local Time) from SBSM Reporting Station
Few Clouds Few Clouds  
Wind Chill: 66°   Ceiling: Unl
Heat Index: 66°   Visibility: 6mi
Dew Point: 63°   Wind: 6mph
Humidity: 88%   Direction: 50°NE
Pressure: 29.83"   Gusts: NA
Location:  30.63°S, 55.27°W
Report Text: SBSM 191000Z 05005KT 9999 FEW040 19/17 Q1010
Loading
Personal Weather Stations






























Interactive Weather Map New forecast layout! Learn more

10-Day Weather Forecast

Advertisements
Track Severe Weather on mobile